RJOZ weather

Ozuki Airport
Yamaguchi Prefecture, Japan

Public forecast

Using degrees Celsius for public forecast. Weather courtesy of forecast.io.

METAR (pilot weather report)

Retrieved 2019/05/20 07:13 UTC (1 hour ago):

RJOZ 200713Z 27003KT 230V320 5000 -SHRA BR FEW005 SCT010 BKN025 19/18 Q1003 RMK 1ST005 4CU010 7CU025 A2963

TAF (pilot weather forecast)

Closest forecast is Kitakyūshū Airport, 12.0 nm (22.2 km) S. Retrieved 2019/05/20 06:30 UTC (2 hours ago):

TAF TAF RJFR 200509Z 2006/2112 28015KT 9999 FEW015 SCT025 TEMPO 2006/2008 2000 -SHRA BR FEW003 BKN006 BKN015 TEMPO 2008/2010 4000 -SHRA BR FEW003 BKN006 BKN015 BECMG 2109/2112 24007KT